Time;durP1;ratioP1;P1;durP2;ratioP2;P2;SDS_P1;SDS_P2;PMS_P1;PMS_P2;Temp;Humidity;BMP_temperature;BMP_pressure;BME280_temperature;BME280_humidity;BME280_pressure;Samples;Min_cycle;Max_cycle;Signal;HPM_P1;HPM_P2
2024/04/14 00:00:56;;;;;;;2.27;1.97;;;19.40;91.80;;;;;;5559608;25;20454;-49
2024/04/14 00:03:29;;;;;;;2.70;2.50;;;19.40;91.80;;;;;;5561282;25;20447;-50
2024/04/14 00:05:56;;;;;;;2.87;2.57;;;19.40;91.80;;;;;;5557767;25;20456;-49
2024/04/14 00:08:27;;;;;;;3.00;2.30;;;19.40;91.80;;;;;;5555293;25;20451;-48
2024/04/14 00:10:57;;;;;;;3.43;2.20;;;19.40;91.70;;;;;;5560417;25;20575;-48
2024/04/14 00:13:27;;;;;;;2.67;2.40;;;19.40;91.80;;;;;;5551579;25;20563;-48
2024/04/14 00:16:02;;;;;;;4.20;2.10;;;19.40;92.20;;;;;;5559178;25;20594;-47
2024/04/14 00:18:34;;;;;;;2.10;1.83;;;19.40;91.80;;;;;;5561513;25;20570;-47
2024/04/14 00:21:02;;;;;;;3.17;2.23;;;19.40;91.80;;;;;;5568932;25;20499;-48
2024/04/14 00:23:32;;;;;;;2.30;2.10;;;19.40;91.80;;;;;;5554128;25;20838;-48
2024/04/14 00:25:59;;;;;;;2.67;2.47;;;19.40;91.70;;;;;;5560755;25;20514;-48
2024/04/14 00:28:29;;;;;;;3.47;2.33;;;19.40;91.70;;;;;;5542333;25;20464;-48
2024/04/14 00:30:56;;;;;;;2.13;1.93;;;19.40;91.60;;;;;;5558418;25;20862;-48
2024/04/14 00:33:30;;;;;;;3.07;2.50;;;19.40;91.70;;;;;;5560493;25;20450;-50
2024/04/14 00:36:00;;;;;;;2.33;2.13;;;19.40;91.60;;;;;;5557384;25;20453;-48
2024/04/14 00:38:31;;;;;;;2.93;2.57;;;19.40;91.40;;;;;;5551932;25;20454;-49
2024/04/14 00:40:58;;;;;;;2.50;2.30;;;19.40;91.20;;;;;;5558824;25;20524;-52
2024/04/14 00:43:28;;;;;;;2.20;2.00;;;19.40;90.90;;;;;;5550603;25;20452;-49
2024/04/14 00:45:55;;;;;;;2.30;2.10;;;19.40;90.90;;;;;;5558213;25;20451;-46
2024/04/14 00:48:26;;;;;;;2.20;2.00;;;19.40;90.90;;;;;;5551771;25;20446;-49
2024/04/14 00:50:54;;;;;;;3.00;2.53;;;19.40;90.90;;;;;;5518771;25;20454;-49
2024/04/14 00:53:27;;;;;;;2.00;1.80;;;19.40;90.90;;;;;;5556599;25;20517;-47
2024/04/14 00:55:54;;;;;;;4.73;2.40;;;19.40;90.90;;;;;;5559110;25;20462;-49
2024/04/14 00:58:24;;;;;;;2.90;1.97;;;19.40;90.50;;;;;;5538336;25;20873;-50
2024/04/14 01:00:52;;;;;;;2.57;1.90;;;19.40;90.40;;;;;;5552831;25;21372;-49
2024/04/14 01:03:22;;;;;;;2.47;1.90;;;19.40;90.30;;;;;;5560028;25;20450;-46
2024/04/14 01:05:50;;;;;;;2.37;2.10;;;19.40;90.50;;;;;;5559541;25;20446;-48
2024/04/14 01:08:20;;;;;;;2.07;1.67;;;19.40;90.20;;;;;;5549833;25;20519;-49
2024/04/14 01:10:49;;;;;;;3.00;2.63;;;19.30;90.20;;;;;;5561264;25;20498;-49
2024/04/14 01:13:19;;;;;;;2.47;2.20;;;19.40;90.30;;;;;;5540776;25;20507;-48
2024/04/14 01:15:46;;;;;;;2.53;2.03;;;19.40;90.20;;;;;;5550849;25;20446;-50
2024/04/14 01:18:16;;;;;;;2.93;2.30;;;19.40;90.10;;;;;;5555194;25;20495;-49
2024/04/14 01:20:44;;;;;;;2.70;2.10;;;19.40;90.20;;;;;;5550507;25;20463;-49
2024/04/14 01:23:13;;;;;;;2.00;1.50;;;19.40;90.00;;;;;;5548736;25;20574;-47
2024/04/14 01:25:56;;;;;;;2.17;1.97;;;19.30;90.40;;;;;;5549742;25;20519;-49
2024/04/14 01:28:26;;;;;;;2.57;1.97;;;19.30;90.20;;;;;;5540818;25;20842;-49
2024/04/14 01:30:54;;;;;;;2.10;1.70;;;19.40;90.00;;;;;;5557009;25;20458;-49
2024/04/14 01:33:24;;;;;;;2.20;2.00;;;19.30;89.70;;;;;;5559730;25;20462;-49
2024/04/14 01:35:51;;;;;;;2.13;1.93;;;19.30;89.70;;;;;;5559293;25;20802;-49
2024/04/14 01:38:21;;;;;;;2.13;1.80;;;19.40;90.00;;;;;;5544526;25;21094;-48
2024/04/14 01:40:55;;;;;;;2.63;2.17;;;19.30;90.10;;;;;;5521541;25;20544;-50
2024/04/14 01:43:25;;;;;;;1.93;1.80;;;19.30;89.40;;;;;;5550545;25;20463;-49
2024/04/14 01:45:52;;;;;;;2.27;1.70;;;19.40;89.30;;;;;;5552862;25;20462;-48
2024/04/14 01:48:22;;;;;;;2.10;1.90;;;19.30;88.50;;;;;;5545910;25;20562;-49
2024/04/14 01:50:49;;;;;;;2.40;2.00;;;19.30;88.00;;;;;;5558197;25;20560;-48
2024/04/14 01:53:19;;;;;;;2.57;2.10;;;19.30;88.70;;;;;;5537488;25;20530;-48
2024/04/14 01:55:47;;;;;;;2.80;2.17;;;19.30;88.40;;;;;;5559284;25;20466;-48
2024/04/14 01:58:20;;;;;;;1.87;1.77;;;19.30;88.50;;;;;;5538467;25;21022;-48
2024/04/14 02:00:47;;;;;;;1.87;1.57;;;19.30;87.10;;;;;;5553746;25;20462;-49
2024/04/14 02:03:17;;;;;;;2.37;1.70;;;19.30;87.30;;;;;;5558754;25;20466;-48
2024/04/14 02:05:44;;;;;;;2.87;1.50;;;19.30;86.90;;;;;;5559675;25;20909;-49
2024/04/14 02:08:14;;;;;;;1.87;1.77;;;19.30;87.30;;;;;;5554050;25;20454;-50
2024/04/14 02:10:41;;;;;;;1.80;1.70;;;19.30;87.70;;;;;;5558516;25;21022;-50
2024/04/14 02:13:11;;;;;;;3.67;1.80;;;19.30;87.40;;;;;;5553289;25;20515;-48
2024/04/14 02:15:41;;;;;;;2.27;2.03;;;19.30;87.70;;;;;;5551858;25;20466;-48
2024/04/14 02:18:11;;;;;;;2.13;1.93;;;19.30;88.90;;;;;;5548213;25;20466;-47
2024/04/14 02:20:38;;;;;;;2.03;1.83;;;19.30;88.50;;;;;;5557762;25;20509;-49
2024/04/14 02:23:08;;;;;;;2.57;2.07;;;19.30;88.20;;;;;;5552470;25;20442;-50
2024/04/14 02:25:36;;;;;;;2.10;1.90;;;19.30;88.90;;;;;;5562573;25;20546;-50
2024/04/14 02:28:08;;;;;;;2.73;2.10;;;19.30;88.10;;;;;;5539961;25;20447;-48
2024/04/14 02:30:35;;;;;;;1.97;1.77;;;19.30;87.70;;;;;;5553840;25;20583;-49
2024/04/14 02:33:08;;;;;;;2.37;2.13;;;19.30;87.80;;;;;;5572997;25;20443;-48
2024/04/14 02:35:36;;;;;;;1.47;1.37;;;19.30;88.40;;;;;;5551198;25;20803;-48
2024/04/14 02:38:06;;;;;;;2.13;1.93;;;19.30;88.10;;;;;;5550587;25;20518;-50
2024/04/14 02:40:34;;;;;;;2.20;2.03;;;19.30;88.00;;;;;;5561186;25;20454;-51
2024/04/14 02:43:04;;;;;;;2.20;2.00;;;19.30;87.70;;;;;;5557336;25;20547;-49
2024/04/14 02:45:31;;;;;;;1.67;1.57;;;19.30;87.90;;;;;;5557464;25;20466;-48
2024/04/14 02:48:01;;;;;;;2.20;2.00;;;19.30;87.70;;;;;;5554039;25;20556;-49
2024/04/14 02:50:31;;;;;;;2.50;1.50;;;19.30;87.40;;;;;;5561892;25;20829;-48
2024/04/14 02:53:01;;;;;;;2.13;1.93;;;19.30;87.80;;;;;;5554973;25;20510;-49
2024/04/14 02:55:28;;;;;;;1.77;1.60;;;19.30;87.60;;;;;;5562493;25;20459;-47
2024/04/14 02:58:01;;;;;;;1.83;1.60;;;19.30;87.30;;;;;;5551828;25;20451;-48
2024/04/14 03:00:28;;;;;;;2.77;2.00;;;19.20;87.60;;;;;;5549044;25;20573;-50
2024/04/14 03:02:58;;;;;;;2.93;1.70;;;19.20;87.20;;;;;;5559674;25;20458;-48
2024/04/14 03:05:26;;;;;;;1.77;1.67;;;19.20;87.10;;;;;;5565248;25;20462;-48
2024/04/14 03:07:59;;;;;;;2.20;1.60;;;19.20;87.40;;;;;;5553215;25;20508;-48
2024/04/14 03:10:27;;;;;;;2.37;1.80;;;19.30;87.20;;;;;;5555425;25;20524;-48
2024/04/14 03:12:56;;;;;;;2.57;2.07;;;19.20;88.10;;;;;;5558883;25;20451;-49
2024/04/14 03:15:24;;;;;;;2.53;2.10;;;19.20;87.60;;;;;;5560176;25;20801;-47
2024/04/14 03:17:54;;;;;;;1.70;1.40;;;19.20;87.80;;;;;;5553536;25;20572;-49
2024/04/14 03:20:21;;;;;;;1.67;1.57;;;19.20;87.50;;;;;;5562099;25;20443;-48
2024/04/14 03:22:51;;;;;;;1.70;1.60;;;19.20;88.40;;;;;;5555793;25;20534;-49
2024/04/14 03:25:21;;;;;;;2.07;1.77;;;19.20;88.50;;;;;;5561533;25;20454;-48
2024/04/14 03:27:51;;;;;;;1.90;1.67;;;19.20;88.00;;;;;;5557949;25;20502;-50
2024/04/14 03:30:19;;;;;;;2.43;1.70;;;19.20;88.20;;;;;;5546020;25;20455;-49
2024/04/14 03:32:48;;;;;;;1.67;1.57;;;19.20;88.10;;;;;;5559463;25;20499;-48
2024/04/14 03:35:16;;;;;;;1.80;1.67;;;19.20;88.40;;;;;;5560163;25;20443;-48
2024/04/14 03:37:46;;;;;;;4.57;1.67;;;19.20;87.50;;;;;;5553967;25;20458;-48
2024/04/14 03:40:15;;;;;;;2.70;1.90;;;19.20;88.50;;;;;;5557385;25;20454;-49
2024/04/14 03:42:48;;;;;;;1.70;1.60;;;19.20;88.50;;;;;;5561094;25;20540;-47
2024/04/14 03:45:22;;;;;;;1.60;1.50;;;19.20;88.90;;;;;;5547840;25;20518;-49
2024/04/14 03:47:52;;;;;;;1.90;1.63;;;19.20;88.70;;;;;;5556218;25;20450;-50
2024/04/14 03:50:22;;;;;;;2.37;1.90;;;19.20;88.20;;;;;;5563933;25;20845;-48
2024/04/14 03:52:51;;;;;;;1.90;1.70;;;19.20;89.20;;;;;;5553491;25;21026;-51
2024/04/14 03:55:21;;;;;;;2.07;1.87;;;19.20;89.50;;;;;;5560346;25;20564;-47
2024/04/14 03:57:51;;;;;;;1.73;1.57;;;19.20;88.60;;;;;;5554017;25;20507;-48
2024/04/14 04:00:21;;;;;;;1.70;1.47;;;19.20;88.90;;;;;;5549148;25;20579;-47
2024/04/14 04:02:50;;;;;;;2.67;1.80;;;19.20;88.80;;;;;;5557477;25;20462;-47
2024/04/14 04:05:20;;;;;;;1.73;1.33;;;19.10;89.00;;;;;;5548776;25;20455;-48
2024/04/14 04:07:48;;;;;;;2.40;2.20;;;19.10;88.80;;;;;;5554267;25;20558;-48
2024/04/14 04:10:18;;;;;;;1.53;1.43;;;19.10;88.20;;;;;;5557113;25;21107;-48
2024/04/14 04:12:47;;;;;;;1.80;1.70;;;19.10;88.50;;;;;;5560067;25;20514;-47
2024/04/14 04:15:19;;;;;;;1.90;1.30;;;19.10;88.80;;;;;;5547822;25;20498;-47
2024/04/14 04:17:48;;;;;;;2.30;1.70;;;19.10;88.70;;;;;;5554593;25;20462;-49
2024/04/14 04:20:18;;;;;;;1.93;1.83;;;19.10;88.40;;;;;;5516669;26;20569;-48
2024/04/14 04:22:45;;;;;;;1.73;1.63;;;19.10;88.40;;;;;;5554122;25;20462;-48
2024/04/14 04:25:15;;;;;;;3.47;2.40;;;19.10;88.90;;;;;;5560737;25;20447;-48
2024/04/14 04:27:42;;;;;;;2.40;1.73;;;19.10;88.60;;;;;;5550143;25;20567;-49
2024/04/14 04:30:12;;;;;;;1.77;1.67;;;19.10;88.70;;;;;;5546497;25;20514;-50
2024/04/14 04:32:42;;;;;;;1.80;1.60;;;19.10;87.80;;;;;;5561074;25;20842;-52
2024/04/14 04:35:12;;;;;;;1.77;1.63;;;19.10;88.40;;;;;;5559037;25;20998;-48
2024/04/14 04:37:40;;;;;;;2.33;1.70;;;19.10;89.20;;;;;;5555329;25;20466;-50
2024/04/14 04:40:10;;;;;;;1.87;1.70;;;19.10;88.40;;;;;;5525321;25;20459;-46
2024/04/14 04:42:37;;;;;;;2.33;1.30;;;19.10;88.00;;;;;;5557764;25;20578;-48
2024/04/14 04:45:08;;;;;;;2.60;1.70;;;19.10;88.20;;;;;;5546763;25;20859;-49
2024/04/14 04:47:35;;;;;;;2.17;1.80;;;19.10;88.40;;;;;;5561118;25;20515;-48
2024/04/14 04:50:09;;;;;;;2.10;1.80;;;19.10;88.30;;;;;;5559633;25;20830;-48
2024/04/14 04:52:36;;;;;;;2.53;2.10;;;19.10;88.70;;;;;;5555681;25;21085;-49
2024/04/14 04:55:06;;;;;;;1.50;1.40;;;19.10;89.00;;;;;;5556632;25;21163;-48
2024/04/14 04:57:33;;;;;;;3.30;1.70;;;19.00;88.40;;;;;;5555254;25;20990;-49
2024/04/14 05:00:03;;;;;;;1.83;1.50;;;19.00;88.90;;;;;;5547547;25;20476;-48
2024/04/14 05:02:31;;;;;;;2.13;1.90;;;19.10;88.90;;;;;;5560038;25;20935;-48
2024/04/14 05:05:01;;;;;;;6.53;1.97;;;19.10;88.70;;;;;;5560200;25;20470;-47
2024/04/14 05:07:32;;;;;;;1.73;1.60;;;19.10;89.00;;;;;;5548724;25;20498;-51
2024/04/14 05:10:02;;;;;;;1.87;1.40;;;19.10;88.80;;;;;;5559768;25;20574;-46
2024/04/14 05:12:30;;;;;;;2.40;2.20;;;19.00;89.40;;;;;;5547166;25;20491;-46
2024/04/14 05:15:04;;;;;;;3.37;1.53;;;19.10;88.90;;;;;;5542720;25;20770;-49
2024/04/14 05:17:31;;;;;;;1.67;1.57;;;19.00;89.20;;;;;;5555553;25;21002;-46
2024/04/14 05:20:01;;;;;;;1.70;1.60;;;19.00;89.60;;;;;;5555971;25;20456;-50
2024/04/14 05:22:31;;;;;;;2.90;1.80;;;19.00;88.80;;;;;;5560305;25;21066;-49
2024/04/14 05:25:01;;;;;;;2.47;2.03;;;19.00;88.40;;;;;;5560544;25;20522;-47
2024/04/14 05:27:28;;;;;;;2.10;1.67;;;19.00;88.80;;;;;;5560871;25;20907;-49
2024/04/14 05:29:58;;;;;;;2.00;1.60;;;19.00;88.80;;;;;;5544107;25;20543;-49
2024/04/14 05:32:25;;;;;;;2.20;2.00;;;19.00;89.20;;;;;;5559950;25;20506;-47
2024/04/14 05:34:55;;;;;;;2.37;1.83;;;19.00;88.50;;;;;;5559522;25;20535;-48
2024/04/14 05:37:23;;;;;;;1.80;1.60;;;19.00;89.00;;;;;;5547542;25;20872;-49
2024/04/14 05:39:56;;;;;;;2.60;2.40;;;19.00;88.20;;;;;;5521046;25;21075;-47
2024/04/14 05:42:23;;;;;;;2.63;1.93;;;19.00;88.30;;;;;;5545237;25;20446;-48
2024/04/14 05:44:53;;;;;;;2.10;1.60;;;19.00;88.50;;;;;;5545376;25;20820;-47
2024/04/14 05:47:20;;;;;;;2.00;1.73;;;19.00;88.80;;;;;;5555338;25;20502;-48
2024/04/14 05:49:51;;;;;;;2.07;1.87;;;19.00;88.40;;;;;;5554895;25;20841;-46
2024/04/14 05:52:18;;;;;;;1.63;1.53;;;19.00;89.10;;;;;;5517023;26;20536;-47
2024/04/14 05:54:48;;;;;;;3.60;1.70;;;19.00;88.40;;;;;;5552619;25;20547;-47
2024/04/14 05:57:18;;;;;;;1.47;1.37;;;19.00;88.80;;;;;;5558816;25;20530;-45
2024/04/14 05:59:48;;;;;;;1.93;1.50;;;19.00;88.50;;;;;;5545930;25;20462;-46
2024/04/14 06:02:15;;;;;;;2.50;2.10;;;19.00;88.30;;;;;;5561684;25;20455;-47
2024/04/14 06:04:46;;;;;;;3.43;1.80;;;18.90;88.80;;;;;;5561116;25;20447;-49
2024/04/14 06:07:13;;;;;;;2.00;1.70;;;19.00;88.20;;;;;;5560141;25;20502;-46
2024/04/14 06:09:43;;;;;;;3.13;1.90;;;18.90;88.20;;;;;;5550716;25;20462;-46
2024/04/14 06:12:10;;;;;;;3.77;2.30;;;18.90;88.00;;;;;;5573475;25;20560;-47
2024/04/14 06:14:42;;;;;;;1.87;1.67;;;18.90;87.70;;;;;;5547943;25;20588;-48
2024/04/14 06:17:10;;;;;;;3.07;2.00;;;19.00;88.40;;;;;;5520263;25;20462;-46
2024/04/14 06:19:41;;;;;;;2.47;2.10;;;18.90;88.60;;;;;;5569801;25;20488;-46
2024/04/14 06:22:08;;;;;;;2.67;2.23;;;18.90;88.60;;;;;;5562838;25;20442;-46
2024/04/14 06:24:38;;;;;;;2.50;2.03;;;18.90;88.40;;;;;;5555991;25;20458;-47
2024/04/14 06:27:05;;;;;;;2.03;1.67;;;19.00;88.30;;;;;;5564262;25;20964;-46
2024/04/14 06:29:35;;;;;;;4.40;2.37;;;18.90;88.50;;;;;;5566024;25;21123;-46
2024/04/14 06:32:06;;;;;;;2.23;1.20;;;18.90;88.40;;;;;;5561071;25;20456;-46
2024/04/14 06:34:35;;;;;;;2.37;2.17;;;18.90;88.80;;;;;;5561288;25;20450;-46
2024/04/14 06:37:03;;;;;;;2.00;1.80;;;18.90;88.60;;;;;;5555869;25;20460;-48
2024/04/14 06:39:33;;;;;;;2.53;2.33;;;18.90;88.70;;;;;;5555219;25;20805;-47
2024/04/14 06:42:04;;;;;;;2.60;2.07;;;18.90;88.20;;;;;;5556464;25;21030;-46
2024/04/14 06:44:35;;;;;;;4.13;1.60;;;18.90;88.50;;;;;;5560402;25;20515;-47
2024/04/14 06:47:05;;;;;;;2.57;1.77;;;18.90;88.50;;;;;;5557722;25;20448;-48
2024/04/14 06:49:35;;;;;;;2.30;2.10;;;18.90;88.70;;;;;;5561548;25;20454;-46
2024/04/14 06:52:02;;;;;;;2.63;2.10;;;18.90;88.70;;;;;;5552265;25;20464;-48
2024/04/14 06:54:32;;;;;;;2.70;1.90;;;18.90;88.90;;;;;;5560688;25;20528;-47
2024/04/14 06:56:59;;;;;;;3.03;2.27;;;18.90;88.50;;;;;;5528278;25;20455;-47
2024/04/14 06:59:29;;;;;;;3.43;2.00;;;18.90;88.50;;;;;;5547467;25;20525;-47
2024/04/14 07:01:59;;;;;;;3.30;2.27;;;18.90;88.40;;;;;;5563343;25;21104;-47
2024/04/14 07:04:29;;;;;;;3.20;2.30;;;18.90;88.50;;;;;;5560978;25;20459;-47
2024/04/14 07:06:59;;;;;;;3.50;1.97;;;18.90;88.50;;;;;;5563766;25;20527;-46
2024/04/14 07:09:26;;;;;;;3.07;1.70;;;18.90;88.30;;;;;;5562138;25;20463;-48
2024/04/14 07:11:56;;;;;;;2.93;2.13;;;18.90;88.80;;;;;;5561369;25;20510;-47
2024/04/14 07:14:23;;;;;;;2.37;1.80;;;18.90;88.70;;;;;;5546415;25;20571;-48
2024/04/14 07:16:53;;;;;;;3.13;2.27;;;18.90;88.80;;;;;;5557582;25;20474;-48
2024/04/14 07:19:20;;;;;;;2.23;2.03;;;18.90;89.00;;;;;;5558805;25;20478;-48
2024/04/14 07:21:53;;;;;;;3.80;2.13;;;18.90;89.20;;;;;;5560137;25;20463;-48
2024/04/14 07:24:21;;;;;;;4.27;2.00;;;18.90;89.00;;;;;;5542779;25;20521;-46
2024/04/14 07:26:51;;;;;;;4.10;2.37;;;18.90;88.40;;;;;;5558935;25;20466;-47
2024/04/14 07:29:19;;;;;;;3.67;3.30;;;18.70;87.50;;;;;;5543367;25;20517;-46
2024/04/14 07:31:49;;;;;;;3.63;2.53;;;18.70;88.30;;;;;;5558737;25;20468;-48
2024/04/14 07:34:16;;;;;;;5.63;3.07;;;18.70;88.30;;;;;;5547469;25;20500;-47
2024/04/14 07:36:46;;;;;;;4.20;2.60;;;18.80;88.20;;;;;;5517424;25;20984;-48
2024/04/14 07:39:16;;;;;;;3.93;2.60;;;18.80;88.80;;;;;;5558405;25;20518;-49
2024/04/14 07:41:46;;;;;;;3.53;2.30;;;18.80;88.80;;;;;;5557130;25;20557;-48
2024/04/14 07:44:13;;;;;;;3.50;2.40;;;18.80;88.50;;;;;;5553223;25;21042;-49
2024/04/14 07:46:43;;;;;;;4.13;2.63;;;18.80;87.80;;;;;;5559168;25;20844;-47
2024/04/14 07:49:10;;;;;;;4.00;2.60;;;18.90;88.00;;;;;;5557581;25;20476;-49
2024/04/14 07:51:40;;;;;;;4.30;2.20;;;18.90;89.30;;;;;;5558436;25;20559;-49
2024/04/14 07:54:07;;;;;;;5.53;1.90;;;18.90;88.00;;;;;;5557000;25;20458;-49
2024/04/14 07:56:39;;;;;;;6.07;3.03;;;18.90;87.80;;;;;;5558273;25;20459;-49
2024/04/14 07:59:07;;;;;;;4.57;3.20;;;18.80;87.50;;;;;;5545013;25;21115;-49
2024/04/14 08:01:37;;;;;;;3.30;2.67;;;18.80;87.20;;;;;;5518931;26;20570;-48
2024/04/14 08:04:04;;;;;;;5.70;3.10;;;18.80;87.30;;;;;;5551611;25;20458;-48
2024/04/14 08:06:34;;;;;;;2.93;2.37;;;18.90;87.50;;;;;;5567596;25;20451;-47
2024/04/14 08:09:02;;;;;;;3.60;2.37;;;18.80;87.80;;;;;;5559036;25;20450;-48
2024/04/14 08:11:32;;;;;;;3.90;2.73;;;18.90;87.40;;;;;;5559710;25;20470;-49
2024/04/14 08:14:02;;;;;;;3.23;2.30;;;18.90;87.70;;;;;;5533587;25;20472;-47
2024/04/14 08:16:32;;;;;;;4.40;3.40;;;18.90;87.90;;;;;;5559246;25;20470;-48
2024/04/14 08:18:59;;;;;;;9.63;3.60;;;18.80;85.20;;;;;;5551683;25;20458;-48
2024/04/14 08:21:29;;;;;;;3.70;3.20;;;18.80;85.50;;;;;;5559892;25;20450;-47
2024/04/14 08:23:59;;;;;;;4.50;3.27;;;18.80;86.40;;;;;;5553815;25;20454;-49
2024/04/14 08:26:29;;;;;;;4.33;2.87;;;18.80;85.80;;;;;;5560512;25;20504;-50
2024/04/14 08:28:56;;;;;;;8.33;3.30;;;18.80;85.90;;;;;;5543804;25;20547;-49
2024/04/14 08:31:29;;;;;;;6.50;3.70;;;18.80;86.10;;;;;;5560114;25;20522;-51
2024/04/14 08:33:56;;;;;;;5.87;3.67;;;18.80;85.70;;;;;;5571827;25;20852;-48
2024/04/14 08:36:26;;;;;;;6.70;2.93;;;18.80;84.20;;;;;;5558627;25;20518;-49
2024/04/14 08:38:53;;;;;;;3.63;2.70;;;18.80;85.70;;;;;;5556358;25;20458;-48
2024/04/14 08:41:27;;;;;;;7.63;2.67;;;18.80;85.50;;;;;;5559853;25;20908;-45
2024/04/14 08:43:55;;;;;;;6.53;4.30;;;18.90;86.00;;;;;;5544592;25;20851;-49
2024/04/14 08:46:30;;;;;;;8.63;3.63;;;19.00;85.30;;;;;;5543572;25;20446;-48
2024/04/14 08:48:59;;;;;;;5.00;3.00;;;19.00;81.70;;;;;;5557125;25;20668;-47
2024/04/14 08:51:31;;;;;;;4.50;3.27;;;18.90;82.10;;;;;;5556816;25;20455;-48
2024/04/14 08:53:59;;;;;;;6.57;3.53;;;18.90;82.70;;;;;;5567474;25;20462;-48
2024/04/14 08:56:31;;;;;;;4.87;2.97;;;18.90;83.10;;;;;;5567202;25;21059;-48
2024/04/14 08:59:04;;;;;;;4.80;3.60;;;18.90;83.60;;;;;;5552932;25;20474;-50
2024/04/14 09:01:36;;;;;;;6.17;2.60;;;18.90;83.70;;;;;;5559003;25;20587;-49
2024/04/14 09:04:05;;;;;;;7.03;3.37;;;18.90;84.20;;;;;;5557837;25;21123;-47
2024/04/14 09:06:36;;;;;;;4.40;3.00;;;18.90;84.50;;;;;;5543164;25;20549;-48
2024/04/14 09:09:03;;;;;;;5.13;2.57;;;18.90;84.60;;;;;;5555197;25;21082;-48
2024/04/14 09:11:33;;;;;;;4.30;2.70;;;18.90;84.90;;;;;;5557268;25;20573;-49
2024/04/14 09:14:00;;;;;;;4.90;2.80;;;18.90;85.30;;;;;;5540438;25;21024;-47
2024/04/14 09:16:30;;;;;;;3.93;2.03;;;18.90;85.60;;;;;;5565890;25;20445;-46
2024/04/14 09:19:03;;;;;;;4.33;2.53;;;18.90;85.60;;;;;;5560604;25;20462;-47
2024/04/14 09:21:30;;;;;;;4.40;3.43;;;18.90;85.70;;;;;;5558250;25;20503;-46
2024/04/14 09:24:02;;;;;;;9.10;4.37;;;19.00;84.00;;;;;;5546439;25;20474;-48
2024/04/14 09:26:29;;;;;;;5.03;3.80;;;19.10;80.00;;;;;;5559808;25;20451;-48
2024/04/14 09:29:06;;;;;;;3.10;2.40;;;19.10;82.10;;;;;;5541633;25;21117;-49
2024/04/14 09:31:33;;;;;;;7.23;4.10;;;19.10;83.20;;;;;;5560423;25;20451;-48
2024/04/14 09:34:07;;;;;;;5.30;2.90;;;19.10;81.30;;;;;;5525032;25;20520;-49
2024/04/14 09:36:36;;;;;;;6.53;3.10;;;19.10;82.70;;;;;;5563052;25;21060;-48
2024/04/14 09:39:07;;;;;;;7.60;3.60;;;19.00;82.50;;;;;;5548374;25;20540;-48
2024/04/14 09:41:36;;;;;;;5.90;3.73;;;19.10;80.90;;;;;;5573163;25;20561;-47
2024/04/14 09:44:08;;;;;;;6.93;3.97;;;19.10;76.80;;;;;;5550075;25;20506;-49
2024/04/14 09:46:36;;;;;;;7.20;3.27;;;19.10;78.90;;;;;;5562687;25;20548;-50
2024/04/14 09:49:09;;;;;;;4.03;3.20;;;19.10;80.10;;;;;;5547403;25;20884;-49
2024/04/14 09:51:39;;;;;;;3.80;2.77;;;19.00;81.00;;;;;;5562833;25;20883;-48
2024/04/14 09:54:14;;;;;;;8.00;3.17;;;19.10;81.70;;;;;;5546548;25;21064;-47
2024/04/14 09:56:41;;;;;;;4.87;2.73;;;19.00;80.10;;;;;;5555552;25;21123;-49
2024/04/14 09:59:11;;;;;;;4.53;2.80;;;19.00;82.00;;;;;;5532712;25;20439;-47
2024/04/14 10:01:42;;;;;;;4.73;2.70;;;19.00;82.30;;;;;;5561145;25;20458;-48
2024/04/14 10:04:16;;;;;;;6.43;3.37;;;19.10;80.50;;;;;;5560899;25;20455;-48
2024/04/14 10:06:44;;;;;;;3.93;3.20;;;19.20;75.90;;;;;;5567951;25;20509;-51
2024/04/14 10:09:14;;;;;;;3.80;3.17;;;19.20;77.10;;;;;;5547770;25;21090;-47
2024/04/14 10:11:43;;;;;;;3.20;2.60;;;19.10;77.90;;;;;;5561667;25;21131;-48
2024/04/14 10:14:14;;;;;;;5.43;2.77;;;19.10;79.10;;;;;;5554660;25;20458;-48
2024/04/14 10:16:54;;;;;;;3.33;2.03;;;19.10;80.10;;;;;;5554725;25;20447;-47
2024/04/14 10:19:28;;;;;;;3.10;2.80;;;19.10;80.60;;;;;;5543931;25;20672;-47
2024/04/14 10:22:01;;;;;;;5.00;2.80;;;19.10;80.80;;;;;;5570093;25;21012;-47
2024/04/14 10:24:32;;;;;;;7.87;3.53;;;19.00;80.90;;;;;;5562982;25;20548;-48
2024/04/14 10:27:06;;;;;;;3.40;2.60;;;19.00;81.20;;;;;;5547373;25;21031;-51
2024/04/14 10:29:36;;;;;;;4.87;2.63;;;19.00;81.40;;;;;;5558848;25;20557;-48
2024/04/14 10:32:03;;;;;;;3.47;2.50;;;19.00;81.60;;;;;;5560792;25;20570;-47
2024/04/14 10:34:36;;;;;;;6.00;2.63;;;19.00;81.80;;;;;;5562893;25;20848;-47
2024/04/14 10:37:04;;;;;;;5.13;2.43;;;19.00;82.10;;;;;;5556786;25;20463;-49
2024/04/14 10:39:36;;;;;;;4.77;3.10;;;19.00;78.80;;;;;;5551104;25;20577;-48
2024/04/14 10:42:05;;;;;;;3.47;2.20;;;18.90;80.00;;;;;;5525084;25;20498;-48
2024/04/14 10:44:35;;;;;;;3.87;2.43;;;19.00;80.60;;;;;;5546825;25;20458;-47
2024/04/14 10:47:02;;;;;;;3.20;2.27;;;18.90;80.90;;;;;;5560244;25;20524;-49
2024/04/14 10:49:32;;;;;;;4.30;2.50;;;18.90;81.30;;;;;;5543560;25;20478;-47
2024/04/14 10:52:02;;;;;;;3.63;2.30;;;18.90;81.30;;;;;;5550121;25;20463;-46
2024/04/14 10:54:32;;;;;;;5.00;2.63;;;18.90;81.50;;;;;;5562901;25;20455;-47
2024/04/14 10:57:00;;;;;;;3.23;2.93;;;18.90;82.00;;;;;;5558173;25;20534;-47
2024/04/14 10:59:31;;;;;;;3.97;2.90;;;18.90;81.70;;;;;;5535045;25;21104;-48
2024/04/14 11:02:00;;;;;;;3.70;2.00;;;18.90;81.60;;;;;;5561658;25;20618;-49
2024/04/14 11:04:30;;;;;;;2.20;1.90;;;18.90;81.90;;;;;;5561797;25;20450;-47
2024/04/14 11:06:58;;;;;;;2.27;2.07;;;18.90;82.10;;;;;;5552380;25;20496;-48
2024/04/14 11:09:32;;;;;;;3.63;2.47;;;18.90;82.30;;;;;;5547920;25;20567;-52
2024/04/14 11:12:00;;;;;;;3.17;2.30;;;18.90;82.30;;;;;;5557629;25;20512;-49
2024/04/14 11:14:31;;;;;;;2.80;2.17;;;18.90;82.40;;;;;;5543700;25;20608;-47
2024/04/14 11:17:07;;;;;;;4.40;2.13;;;18.90;82.30;;;;;;5571231;25;20462;-49
2024/04/14 11:19:38;;;;;;;3.60;2.67;;;18.90;82.60;;;;;;5551391;25;20458;-48
2024/04/14 11:22:05;;;;;;;5.67;2.70;;;18.90;78.90;;;;;;5560146;25;20450;-48
2024/04/14 11:24:38;;;;;;;2.83;2.43;;;18.90;80.60;;;;;;5556671;25;20451;-48
2024/04/14 11:27:05;;;;;;;3.53;2.03;;;18.90;81.50;;;;;;5561641;25;21132;-48
2024/04/14 11:29:38;;;;;;;5.87;2.50;;;18.90;82.20;;;;;;5545523;25;20507;-51
2024/04/14 11:32:27;;;;;;;3.77;3.00;;;18.90;82.60;;;;;;5561065;25;20775;-48
2024/04/14 11:34:59;;;;;;;2.43;1.70;;;18.90;82.40;;;;;;5551493;25;20507;-49
2024/04/14 11:37:28;;;;;;;2.80;2.10;;;18.90;82.40;;;;;;5551035;25;20560;-47
2024/04/14 11:40:01;;;;;;;2.70;1.97;;;18.90;82.50;;;;;;5555450;25;20867;-48
2024/04/14 11:42:29;;;;;;;4.27;2.23;;;18.90;82.60;;;;;;5557376;25;20517;-47
2024/04/14 11:45:00;;;;;;;2.83;2.17;;;18.90;82.60;;;;;;5541272;25;20447;-47
2024/04/14 11:47:28;;;;;;;2.30;1.90;;;18.90;82.60;;;;;;5561592;25;20487;-47
2024/04/14 11:49:58;;;;;;;3.37;2.93;;;18.90;82.60;;;;;;5554308;25;20519;-47
2024/04/14 11:52:27;;;;;;;2.20;2.00;;;18.90;82.20;;;;;;5560514;25;20556;-48
2024/04/14 11:54:59;;;;;;;2.47;2.27;;;18.90;82.60;;;;;;5554002;25;20450;-50
2024/04/14 11:57:27;;;;;;;3.00;2.23;;;18.90;82.60;;;;;;5556701;25;20503;-50
2024/04/14 11:59:56;;;;;;;2.20;2.00;;;18.90;82.70;;;;;;5550701;25;20451;-48
2024/04/14 12:02:26;;;;;;;5.53;2.40;;;18.90;83.20;;;;;;5536891;25;20522;-47
2024/04/14 12:04:56;;;;;;;4.20;2.93;;;18.90;77.70;;;;;;5559743;25;20463;-50
2024/04/14 12:07:23;;;;;;;4.17;2.20;;;18.90;81.00;;;;;;5555353;25;20532;-50
2024/04/14 12:09:53;;;;;;;3.70;2.60;;;18.90;81.30;;;;;;5551046;25;20459;-49
2024/04/14 12:12:23;;;;;;;4.33;2.53;;;18.90;81.70;;;;;;5554867;25;20447;-48
2024/04/14 12:14:54;;;;;;;3.20;2.40;;;18.90;81.70;;;;;;5548049;25;20563;-48
2024/04/14 12:17:21;;;;;;;3.70;2.40;;;18.90;81.60;;;;;;5547272;25;20548;-49
2024/04/14 12:19:51;;;;;;;3.63;2.50;;;18.90;81.50;;;;;;5561089;25;21014;-49
2024/04/14 12:22:18;;;;;;;2.93;2.23;;;18.90;80.00;;;;;;5548715;25;20514;-49
2024/04/14 12:24:48;;;;;;;3.20;2.90;;;19.00;76.80;;;;;;5542616;25;21141;-48
2024/04/14 12:27:16;;;;;;;3.53;2.60;;;19.00;76.60;;;;;;5559337;25;20987;-48
2024/04/14 12:29:49;;;;;;;4.37;2.80;;;19.00;78.30;;;;;;5531651;25;20578;-48
2024/04/14 12:32:16;;;;;;;4.07;2.30;;;19.00;79.30;;;;;;5559796;25;20458;-47
2024/04/14 12:34:47;;;;;;;4.57;2.40;;;18.90;79.80;;;;;;5561094;25;20494;-47
2024/04/14 12:37:14;;;;;;;2.83;2.50;;;19.00;79.90;;;;;;5555973;25;20447;-47
2024/04/14 12:39:44;;;;;;;4.10;2.60;;;18.90;80.20;;;;;;5543644;25;20459;-48
2024/04/14 12:42:11;;;;;;;4.60;2.30;;;18.90;80.50;;;;;;5526174;25;20458;-47
2024/04/14 12:44:41;;;;;;;4.10;2.00;;;19.00;81.00;;;;;;5555781;25;20772;-48
2024/04/14 12:47:11;;;;;;;2.50;2.30;;;18.90;80.60;;;;;;5560591;25;20582;-48
2024/04/14 12:49:41;;;;;;;4.43;2.17;;;19.00;80.70;;;;;;5532801;25;20577;-48
2024/04/14 12:52:09;;;;;;;3.37;2.30;;;18.90;80.70;;;;;;5546732;25;20782;-49
2024/04/14 12:54:38;;;;;;;5.23;2.40;;;18.90;80.20;;;;;;5561485;25;20443;-47
2024/04/14 12:57:06;;;;;;;3.50;2.40;;;19.00;81.20;;;;;;5559916;25;20454;-47
2024/04/14 12:59:35;;;;;;;3.23;2.40;;;19.00;81.30;;;;;;5539420;25;20454;-52